createdAt,value
2018-12-05T00:00:05.514Z,99.99
2018-12-05T00:01:05.502Z,99.99
2018-12-05T00:02:05.490Z,99.99
2018-12-05T00:03:05.477Z,99.99
2018-12-05T00:04:05.467Z,99.99
2018-12-05T00:05:05.460Z,99.99
2018-12-05T00:06:05.451Z,99.99
2018-12-05T00:07:05.438Z,99.99
2018-12-05T00:08:05.428Z,99.99
2018-12-05T00:09:05.412Z,99.99
2018-12-05T00:10:05.402Z,99.99
2018-12-05T00:11:05.391Z,99.99
2018-12-05T00:12:05.380Z,99.99
2018-12-05T00:13:05.374Z,99.97
2018-12-05T00:14:05.364Z,99.99
2018-12-05T00:15:05.347Z,99.99
2018-12-05T00:16:05.340Z,99.99
2018-12-05T00:17:05.332Z,99.99
2018-12-05T00:18:05.321Z,99.99
2018-12-05T00:19:05.311Z,99.99
2018-12-05T00:20:05.301Z,99.99
2018-12-05T00:21:05.284Z,99.99
2018-12-05T00:22:05.273Z,99.97
2018-12-05T00:23:05.261Z,99.99
2018-12-05T00:24:05.252Z,99.99
2018-12-05T00:25:05.246Z,99.99
2018-12-05T00:26:05.234Z,99.99
2018-12-05T00:27:05.223Z,99.99
2018-12-05T00:28:05.216Z,99.99
2018-12-05T00:29:05.199Z,99.99
2018-12-05T00:30:05.187Z,99.99
2018-12-05T00:31:05.185Z,99.97
2018-12-05T00:32:05.171Z,99.97
2018-12-05T00:33:05.155Z,99.99
2018-12-05T00:34:05.144Z,99.97
2018-12-05T00:35:05.134Z,99.99
2018-12-05T00:36:05.123Z,99.99
2018-12-05T00:37:05.116Z,99.99
2018-12-05T00:38:05.106Z,99.87
2018-12-05T00:39:05.094Z,99.99
2018-12-05T00:40:05.084Z,99.99
2018-12-05T00:41:05.069Z,99.99
2018-12-05T00:42:05.059Z,99.49
2018-12-05T00:43:05.053Z,99.68
2018-12-05T00:44:05.037Z,99.99
2018-12-05T00:45:05.033Z,99.58
2018-12-05T00:46:05.022Z,99.87
2018-12-05T00:47:05.005Z,99.97
2018-12-05T00:48:04.994Z,99.99
2018-12-05T00:49:04.989Z,99.99
2018-12-05T00:50:04.980Z,99.99
2018-12-05T00:51:04.966Z,99.99
2018-12-05T00:52:04.956Z,99.58
2018-12-05T00:53:04.943Z,99.68
2018-12-05T00:54:04.930Z,99.99
2018-12-05T00:55:04.920Z,99.68
2018-12-05T00:56:04.910Z,99.68
2018-12-05T00:57:04.906Z,99.40
2018-12-05T00:58:04.892Z,99.21
2018-12-05T00:59:04.881Z,99.77
2018-12-05T01:00:04.874Z,99.99
2018-12-05T01:01:04.856Z,99.02
2018-12-05T01:02:04.846Z,99.97
2018-12-05T01:03:04.839Z,99.58
2018-12-05T01:04:04.831Z,99.97
2018-12-05T01:05:04.814Z,99.99
2018-12-05T01:06:04.803Z,99.02
2018-12-05T01:07:04.792Z,99.97
2018-12-05T01:08:04.781Z,99.97
2018-12-05T01:09:04.781Z,99.77
2018-12-05T01:10:04.766Z,99.11
2018-12-05T01:11:04.753Z,99.97
2018-12-05T01:12:04.743Z,99.87
2018-12-05T01:13:04.728Z,99.11
2018-12-05T01:14:04.719Z,99.11
2018-12-05T01:15:04.706Z,99.21
2018-12-05T01:16:04.695Z,99.77
2018-12-05T01:17:04.690Z,99.49
2018-12-05T01:18:04.679Z,99.58
2018-12-05T01:19:04.663Z,99.40
2018-12-05T01:20:04.653Z,99.68
2018-12-05T01:21:04.646Z,99.77
2018-12-05T01:22:04.636Z,99.87
2018-12-05T01:23:04.627Z,99.49
2018-12-05T01:24:04.615Z,99.87
2018-12-05T01:25:04.599Z,99.77
2018-12-05T01:26:04.588Z,99.87
2018-12-05T01:27:04.577Z,99.97
2018-12-05T01:28:04.569Z,99.58
2018-12-05T01:29:04.562Z,99.40
2018-12-05T01:30:04.551Z,99.02
2018-12-05T01:31:04.538Z,99.68
2018-12-05T01:32:04.527Z,99.40
2018-12-05T01:33:04.513Z,99.21
2018-12-05T01:34:04.503Z,99.99
2018-12-05T01:35:04.495Z,99.77
2018-12-05T01:36:04.484Z,99.40
2018-12-05T01:37:04.469Z,99.49
2018-12-05T01:38:04.459Z,99.77
2018-12-05T01:39:04.447Z,99.21
2018-12-05T01:40:04.437Z,99.99
2018-12-05T01:41:04.432Z,99.58
2018-12-05T01:42:04.420Z,99.99
2018-12-05T01:43:04.408Z,99.97
2018-12-05T01:44:04.398Z,99.11
2018-12-05T01:45:04.384Z,99.40
2018-12-05T01:46:04.374Z,99.77
2018-12-05T01:47:04.360Z,99.99
2018-12-05T01:48:04.349Z,99.99
2018-12-05T01:49:04.343Z,99.49
2018-12-05T01:50:04.410Z,99.30
2018-12-05T01:51:04.317Z,99.49
2018-12-05T01:52:04.306Z,99.58
2018-12-05T01:53:04.299Z,99.40
2018-12-05T01:54:04.288Z,99.97
2018-12-05T01:55:04.282Z,99.68
2018-12-05T01:56:04.267Z,99.87
2018-12-05T01:57:04.252Z,99.87
2018-12-05T01:58:04.240Z,99.68
2018-12-05T01:59:04.229Z,99.77
2018-12-05T02:00:04.218Z,99.58
2018-12-05T02:01:04.212Z,99.99
2018-12-05T02:02:04.203Z,99.99
2018-12-05T02:03:04.188Z,99.97
2018-12-05T02:04:04.179Z,99.97
2018-12-05T02:05:04.164Z,99.97
2018-12-05T02:06:04.153Z,99.99
2018-12-05T02:07:04.146Z,99.99
2018-12-05T02:08:04.133Z,99.99
2018-12-05T02:09:04.118Z,99.99
2018-12-05T02:10:04.107Z,99.97
2018-12-05T02:11:04.099Z,99.99
2018-12-05T02:12:04.086Z,99.99
2018-12-05T02:13:04.080Z,99.99
2018-12-05T02:14:04.067Z,99.99
2018-12-05T02:15:04.059Z,99.91
2018-12-05T02:16:04.045Z,99.91
2018-12-05T02:17:04.029Z,99.97
2018-12-05T02:18:04.018Z,99.99
2018-12-05T02:19:04.007Z,99.99
2018-12-05T02:20:03.995Z,99.77
2018-12-05T02:21:03.989Z,99.99
2018-12-05T02:22:03.978Z,99.99
2018-12-05T02:23:03.965Z,99.99
2018-12-05T02:24:03.949Z,99.99
2018-12-05T02:25:03.943Z,99.99
2018-12-05T02:26:03.934Z,99.99
2018-12-05T02:27:03.920Z,99.99
2018-12-05T02:28:03.909Z,99.99
2018-12-05T02:29:03.894Z,99.99
2018-12-05T02:30:03.883Z,99.99
2018-12-05T02:31:03.870Z,99.99
2018-12-05T02:32:03.861Z,99.99
2018-12-05T02:33:03.855Z,99.99
2018-12-05T02:34:03.844Z,99.99
2018-12-05T02:35:03.831Z,99.99
2018-12-05T02:36:03.821Z,99.91
2018-12-05T02:37:03.804Z,99.99
2018-12-05T02:38:03.795Z,99.99
2018-12-05T02:39:03.786Z,99.73
2018-12-05T02:40:03.778Z,99.99
2018-12-05T02:41:03.761Z,99.99
2018-12-05T02:42:03.748Z,99.99
2018-12-05T02:43:03.737Z,99.99
2018-12-05T02:44:03.724Z,99.99
2018-12-05T02:45:03.719Z,99.99
2018-12-05T02:46:03.707Z,99.99
2018-12-05T02:47:03.695Z,99.99
2018-12-05T02:48:03.686Z,99.99
2018-12-05T02:49:03.669Z,99.99
2018-12-05T02:50:03.659Z,99.99
2018-12-05T02:51:03.647Z,99.73
2018-12-05T02:52:03.635Z,99.99
2018-12-05T02:53:03.630Z,99.99
2018-12-05T02:54:03.633Z,99.99
2018-12-05T02:55:03.609Z,99.99
2018-12-05T02:56:03.590Z,99.99
2018-12-05T02:57:03.593Z,99.99
2018-12-05T02:58:03.573Z,99.99
2018-12-05T02:59:03.560Z,99.99
2018-12-05T03:00:03.548Z,99.99
2018-12-05T03:01:03.533Z,99.99
2018-12-05T03:02:03.522Z,99.99
2018-12-05T03:03:03.510Z,99.99
2018-12-05T03:04:03.498Z,99.99
2018-12-05T03:05:03.492Z,99.99
2018-12-05T03:06:03.487Z,99.99
2018-12-05T03:07:03.468Z,99.99
2018-12-05T03:08:03.459Z,99.99
2018-12-05T03:09:03.442Z,99.99
2018-12-05T03:10:03.432Z,99.99
2018-12-05T03:11:03.423Z,99.99
2018-12-05T03:12:03.425Z,99.99
2018-12-05T03:13:03.397Z,99.99
2018-12-05T03:14:03.386Z,99.99
2018-12-05T03:15:03.375Z,99.99
2018-12-05T03:16:03.362Z,99.99
2018-12-05T03:17:03.356Z,99.99
2018-12-05T03:18:03.347Z,99.99
2018-12-05T03:19:03.332Z,99.99
2018-12-05T03:20:05.314Z,99.99
2018-12-05T03:21:03.308Z,99.99
2018-12-05T03:22:03.296Z,99.99
2018-12-05T03:23:03.285Z,99.99
2018-12-05T03:24:03.273Z,99.99
2018-12-05T03:25:03.268Z,99.99
2018-12-05T03:26:03.260Z,99.99
2018-12-05T03:27:03.241Z,99.99
2018-12-05T03:28:03.229Z,99.99
2018-12-05T03:29:03.222Z,99.99
2018-12-05T03:30:03.237Z,99.99
2018-12-05T03:31:03.213Z,99.99
2018-12-05T03:32:03.192Z,99.99
2018-12-05T03:33:03.175Z,99.99
2018-12-05T03:34:03.165Z,99.99
2018-12-05T03:35:03.158Z,99.99
2018-12-05T03:36:03.142Z,99.99
2018-12-05T03:37:03.136Z,99.99
2018-12-05T03:38:03.126Z,99.99
2018-12-05T03:39:03.115Z,99.99
2018-12-05T03:40:03.102Z,99.99
2018-12-05T03:41:03.088Z,99.99
2018-12-05T03:42:03.076Z,99.99
2018-12-05T03:43:03.070Z,99.99
2018-12-05T03:44:03.058Z,99.99
2018-12-05T03:45:03.042Z,99.99
2018-12-05T03:46:03.034Z,99.99
2018-12-05T03:47:03.035Z,99.99
2018-12-05T03:48:03.010Z,99.99
2018-12-05T03:49:03.005Z,99.99
2018-12-05T03:50:03.065Z,99.99
2018-12-05T03:51:02.984Z,99.99
2018-12-05T03:52:02.970Z,99.99
2018-12-05T03:53:02.957Z,99.99
2018-12-05T03:54:02.946Z,99.99
2018-12-05T03:55:02.933Z,99.99
2018-12-05T03:56:02.922Z,99.99
2018-12-05T03:57:02.917Z,99.99
2018-12-05T03:58:02.906Z,99.99
2018-12-05T03:59:02.888Z,99.99
2018-12-05T04:00:02.878Z,99.99
2018-12-05T04:01:02.872Z,99.99
2018-12-05T04:02:02.863Z,99.99
2018-12-05T04:03:02.850Z,99.99
2018-12-05T04:04:02.840Z,99.99
2018-12-05T04:05:02.823Z,99.99
2018-12-05T04:06:02.814Z,99.99
2018-12-05T04:07:02.802Z,99.99
2018-12-05T04:08:02.794Z,99.99
2018-12-05T04:09:02.785Z,99.99
2018-12-05T04:10:02.775Z,99.99
2018-12-05T04:11:02.762Z,99.99
2018-12-05T04:12:02.753Z,99.99
2018-12-05T04:13:02.748Z,99.99
2018-12-05T04:14:02.725Z,99.99
2018-12-05T04:15:02.719Z,99.99
2018-12-05T04:16:02.716Z,99.99
2018-12-05T04:17:02.692Z,99.99
2018-12-05T04:18:02.681Z,99.99
2018-12-05T04:19:02.670Z,99.99
2018-12-05T04:20:02.659Z,99.99
2018-12-05T04:21:02.653Z,99.99
2018-12-05T04:22:02.647Z,99.99
2018-12-05T04:23:02.630Z,99.99
2018-12-05T04:24:02.622Z,99.99
2018-12-05T04:25:02.604Z,99.99
2018-12-05T04:26:02.660Z,99.99
2018-12-05T04:27:02.582Z,99.99
2018-12-05T04:28:02.573Z,99.99
2018-12-05T04:29:02.572Z,99.99
2018-12-05T04:30:02.554Z,99.99
2018-12-05T04:31:02.538Z,99.99
2018-12-05T04:32:02.528Z,99.99
2018-12-05T04:33:02.520Z,99.99
2018-12-05T04:34:02.509Z,99.99
2018-12-05T04:35:02.503Z,99.99
2018-12-05T04:36:02.489Z,99.99
2018-12-05T04:37:02.476Z,99.99
2018-12-05T04:38:02.463Z,99.99
2018-12-05T04:39:02.450Z,99.99
2018-12-05T04:40:02.439Z,99.99
2018-12-05T04:41:02.434Z,99.99
2018-12-05T04:42:02.423Z,99.99
2018-12-05T04:43:02.410Z,99.99
2018-12-05T04:44:02.400Z,99.99
2018-12-05T04:45:02.386Z,99.99
2018-12-05T04:46:02.385Z,99.99
2018-12-05T04:47:02.381Z,99.99
2018-12-05T04:48:02.356Z,99.99
2018-12-05T04:49:02.341Z,99.99
2018-12-05T04:50:02.330Z,99.99
2018-12-05T04:51:02.321Z,99.99
2018-12-05T04:52:02.308Z,99.99
2018-12-05T04:53:02.303Z,99.99
2018-12-05T04:54:02.292Z,99.99
2018-12-05T04:55:02.280Z,99.99
2018-12-05T04:56:02.272Z,99.99
2018-12-05T04:57:02.254Z,99.99
2018-12-05T04:58:02.243Z,99.99
2018-12-05T04:59:02.237Z,99.99
2018-12-05T05:00:02.222Z,99.99
2018-12-05T05:01:02.214Z,99.99
2018-12-05T05:02:02.207Z,99.99
2018-12-05T05:03:02.193Z,99.99
2018-12-05T05:04:02.179Z,99.99
2018-12-05T05:05:02.172Z,99.99
2018-12-05T05:06:02.162Z,99.99
2018-12-05T05:07:02.150Z,99.99
2018-12-05T05:08:02.142Z,99.54
2018-12-05T05:09:02.126Z,99.73
2018-12-05T05:10:02.114Z,99.44
2018-12-05T05:11:02.109Z,99.35
2018-12-05T05:12:02.093Z,99.26
2018-12-05T05:13:02.087Z,99.44
2018-12-05T05:14:02.076Z,99.26
2018-12-05T05:15:02.065Z,99.26
2018-12-05T05:16:02.055Z,99.26
2018-12-05T05:17:02.041Z,99.06
2018-12-05T05:18:02.030Z,99.06
2018-12-05T05:19:02.026Z,98.97
2018-12-05T05:20:02.013Z,98.78
2018-12-05T05:21:01.997Z,98.87
2018-12-05T05:22:01.989Z,98.49
2018-12-05T05:23:01.977Z,98.30
2018-12-05T05:24:01.966Z,98.49
2018-12-05T05:25:01.959Z,98.68
2018-12-05T05:26:01.949Z,98.30
2018-12-05T05:27:01.938Z,98.02
2018-12-05T05:28:01.929Z,98.35
2018-12-05T05:29:01.913Z,97.92
2018-12-05T05:30:01.903Z,97.55
2018-12-05T05:31:01.900Z,97.60
2018-12-05T05:32:01.881Z,97.41
2018-12-05T05:33:01.876Z,97.74
2018-12-05T05:34:01.867Z,98.30
2018-12-05T05:35:01.851Z,97.74
2018-12-05T05:36:01.842Z,97.92
2018-12-05T05:37:01.834Z,97.69
2018-12-05T05:38:01.824Z,97.83
2018-12-05T05:39:01.811Z,97.74
2018-12-05T05:40:01.802Z,97.92
2018-12-05T05:41:01.789Z,97.55
2018-12-05T05:42:01.777Z,97.78
2018-12-05T05:43:01.765Z,97.78
2018-12-05T05:44:01.757Z,97.97
2018-12-05T05:45:01.750Z,97.22
2018-12-05T05:46:01.739Z,97.22
2018-12-05T05:47:01.729Z,97.88
2018-12-05T05:48:01.720Z,97.97
2018-12-05T05:49:01.703Z,97.41
2018-12-05T05:50:01.693Z,97.88
2018-12-05T05:51:01.688Z,97.41
2018-12-05T05:52:01.678Z,97.22
2018-12-05T05:53:01.662Z,97.22
2018-12-05T05:54:01.653Z,97.12
2018-12-05T05:55:01.640Z,97.12
2018-12-05T05:56:01.631Z,97.97
2018-12-05T05:57:01.624Z,97.22
2018-12-05T05:58:01.616Z,96.64
2018-12-05T05:59:01.605Z,96.64
2018-12-05T06:00:01.594Z,97.31
2018-12-05T06:01:01.579Z,97.07
2018-12-05T06:02:01.568Z,97.41
2018-12-05T06:03:01.624Z,97.02
2018-12-05T06:04:01.547Z,97.22
2018-12-05T06:05:01.543Z,97.12
2018-12-05T06:06:01.534Z,97.02
2018-12-05T06:07:01.517Z,97.12
2018-12-05T06:08:01.507Z,97.02
2018-12-05T06:09:01.501Z,97.02
2018-12-05T06:10:01.492Z,97.22
2018-12-05T06:11:01.479Z,96.74
2018-12-05T06:12:01.469Z,96.64
2018-12-05T06:13:01.458Z,96.78
2018-12-05T06:14:01.445Z,97.12
2018-12-05T06:15:01.436Z,96.83
2018-12-05T06:16:01.423Z,97.02
2018-12-05T06:17:01.417Z,96.83
2018-12-05T06:18:01.407Z,97.41
2018-12-05T06:19:01.397Z,97.22
2018-12-05T06:20:01.390Z,97.12
2018-12-05T06:21:01.372Z,97.02
2018-12-05T06:22:01.362Z,96.64
2018-12-05T06:23:01.355Z,96.17
2018-12-05T06:24:01.344Z,96.64
2018-12-05T06:25:01.332Z,97.02
2018-12-05T06:26:01.320Z,96.64
2018-12-05T06:27:01.310Z,97.02
2018-12-05T06:28:01.300Z,96.08
2018-12-05T06:29:01.293Z,96.36
2018-12-05T06:30:01.317Z,96.45
2018-12-05T06:31:01.273Z,96.64
2018-12-05T06:32:01.262Z,95.98
2018-12-05T06:33:01.253Z,96.36
2018-12-05T06:34:01.236Z,96.74
2018-12-05T06:35:01.225Z,96.74
2018-12-05T06:36:01.218Z,96.17
2018-12-05T06:37:01.211Z,96.64
2018-12-05T06:38:01.199Z,96.64
2018-12-05T06:39:01.185Z,96.17
2018-12-05T06:40:01.177Z,96.45
2018-12-05T06:41:01.167Z,96.55
2018-12-05T06:42:01.157Z,96.45
2018-12-05T06:43:01.147Z,96.08
2018-12-05T06:44:01.137Z,96.08
2018-12-05T06:45:01.121Z,96.36
2018-12-05T06:46:01.112Z,96.36
2018-12-05T06:47:01.100Z,95.98
2018-12-05T06:48:01.091Z,96.17
2018-12-05T06:49:01.089Z,96.08
2018-12-05T06:50:01.075Z,96.74
2018-12-05T06:51:01.063Z,96.08
2018-12-05T06:52:01.053Z,96.55
2018-12-05T06:53:01.038Z,96.08
2018-12-05T06:54:01.029Z,96.55
2018-12-05T06:55:01.022Z,96.17
2018-12-05T06:56:01.011Z,96.26
2018-12-05T06:57:00.997Z,96.17
2018-12-05T06:58:00.986Z,95.79
2018-12-05T06:59:00.976Z,95.98
2018-12-05T07:00:00.967Z,96.55
2018-12-05T07:01:00.960Z,96.17
2018-12-05T07:02:00.951Z,95.98
2018-12-05T07:03:00.940Z,95.79
2018-12-05T07:04:00.930Z,95.98
2018-12-05T07:05:00.915Z,95.98
2018-12-05T07:06:00.905Z,95.98
2018-12-05T07:07:00.894Z,95.98
2018-12-05T07:08:00.884Z,96.45
2018-12-05T07:09:00.879Z,96.26
2018-12-05T07:10:00.868Z,96.17
2018-12-05T07:11:00.855Z,95.98
2018-12-05T07:12:00.845Z,96.17
2018-12-05T07:13:00.838Z,96.17
2018-12-05T07:14:00.827Z,95.51
2018-12-05T07:15:00.818Z,95.89
2018-12-05T07:16:00.807Z,95.89
2018-12-05T07:17:00.792Z,96.36
2018-12-05T07:18:00.782Z,96.17
2018-12-05T07:19:00.772Z,96.26
2018-12-05T07:20:00.769Z,95.31
2018-12-05T07:21:00.758Z,95.60
2018-12-05T07:22:00.747Z,95.89
2018-12-05T07:23:00.735Z,95.41
2018-12-05T07:24:00.725Z,95.22
2018-12-05T07:25:00.711Z,96.26
2018-12-05T07:26:00.701Z,96.08
2018-12-05T07:27:00.694Z,96.17
2018-12-05T07:28:00.686Z,96.36
2018-12-05T07:29:00.670Z,95.98
2018-12-05T07:30:00.661Z,95.98
2018-12-05T07:31:00.650Z,96.26
2018-12-05T07:32:00.643Z,95.79
2018-12-05T07:33:00.635Z,95.70
2018-12-05T07:34:00.623Z,95.98
2018-12-05T07:35:00.613Z,96.26
2018-12-05T07:36:00.603Z,95.51
2018-12-05T07:37:00.587Z,95.31
2018-12-05T07:38:00.578Z,96.17
2018-12-05T07:39:00.569Z,94.84
2018-12-05T07:40:00.558Z,96.08
2018-12-05T07:41:00.553Z,95.55
2018-12-05T07:42:00.542Z,95.65
2018-12-05T07:43:00.528Z,95.75
2018-12-05T07:44:00.517Z,95.65
2018-12-05T07:45:00.511Z,94.98
2018-12-05T07:46:00.507Z,95.36
2018-12-05T07:47:00.490Z,95.17
2018-12-05T07:48:00.481Z,95.65
2018-12-05T07:49:00.469Z,95.84
2018-12-05T07:50:00.456Z,95.27
2018-12-05T07:51:00.451Z,95.08
2018-12-05T07:52:00.438Z,95.75
2018-12-05T07:53:00.431Z,94.89
2018-12-05T07:54:00.420Z,94.32
2018-12-05T07:55:00.409Z,95.08
2018-12-05T07:56:00.401Z,94.98
2018-12-05T07:57:00.386Z,95.08
2018-12-05T07:58:00.375Z,94.79
2018-12-05T07:59:00.371Z,94.70
2018-12-05T08:00:00.360Z,94.89
2018-12-05T08:01:00.345Z,94.51
2018-12-05T08:02:00.335Z,95.27
2018-12-05T08:03:01.800Z,94.89
2018-12-05T08:04:00.316Z,94.89
2018-12-05T08:05:00.310Z,94.51
2018-12-05T08:06:00.300Z,94.60
2018-12-05T08:07:00.289Z,94.98
2018-12-05T08:08:00.284Z,94.89
2018-12-05T08:09:00.267Z,94.42
2018-12-05T08:10:00.255Z,94.89
2018-12-05T08:11:00.245Z,94.42
2018-12-05T08:12:00.238Z,94.79
2018-12-05T08:13:00.232Z,94.98
2018-12-05T08:14:00.222Z,94.70
2018-12-05T08:15:00.208Z,94.79
2018-12-05T08:16:00.196Z,94.89
2018-12-05T08:17:00.191Z,94.60
2018-12-05T08:18:00.181Z,94.70
2018-12-05T08:19:00.170Z,94.42
2018-12-05T08:20:00.161Z,94.51
2018-12-05T08:21:00.146Z,94.79
2018-12-05T08:22:00.137Z,94.70
2018-12-05T08:23:00.127Z,94.70
2018-12-05T08:24:00.117Z,93.94
2018-12-05T08:25:00.111Z,94.23
2018-12-05T08:26:00.101Z,94.51
2018-12-05T08:27:00.091Z,94.51
2018-12-05T08:28:00.082Z,94.42
2018-12-05T08:29:00.068Z,94.89
2018-12-05T08:30:00.060Z,94.42
2018-12-05T08:31:00.053Z,93.94
2018-12-05T08:32:00.042Z,94.23
2018-12-05T08:33:00.027Z,94.03
2018-12-05T08:34:00.019Z,93.84
2018-12-05T08:35:00.008Z,94.03
2018-12-05T08:36:00.008Z,94.03
2018-12-05T08:36:59.995Z,94.13
2018-12-05T08:38:00.579Z,94.23
2018-12-05T08:38:59.968Z,94.51
2018-12-05T08:39:59.959Z,94.03
2018-12-05T08:40:59.954Z,94.23
2018-12-05T08:41:59.946Z,94.13
2018-12-05T08:43:00.008Z,93.94
2018-12-05T08:43:59.925Z,94.23
2018-12-05T08:44:59.910Z,94.42
2018-12-05T08:45:59.905Z,94.32
2018-12-05T08:46:59.894Z,93.84
2018-12-05T08:47:59.885Z,93.84
2018-12-05T08:48:59.873Z,93.84
2018-12-05T08:49:59.862Z,93.84
2018-12-05T08:50:59.852Z,94.13
2018-12-05T08:51:59.845Z,93.56
2018-12-05T08:52:59.837Z,94.03
2018-12-05T08:53:59.828Z,94.13
2018-12-05T08:54:59.817Z,93.94
2018-12-05T08:55:59.809Z,93.94
2018-12-05T08:56:59.796Z,94.13
2018-12-05T08:57:59.785Z,93.94
2018-12-05T08:58:59.774Z,94.42
2018-12-05T08:59:59.764Z,94.13
2018-12-05T09:00:59.761Z,93.84
2018-12-05T09:01:59.751Z,94.23
2018-12-05T09:02:59.739Z,94.32
2018-12-05T09:03:59.727Z,94.13
2018-12-05T09:04:59.721Z,94.03
2018-12-05T09:05:59.721Z,93.84
2018-12-05T09:06:59.702Z,94.51
2018-12-05T09:07:59.694Z,94.23
2018-12-05T09:08:59.679Z,94.32
2018-12-05T09:09:59.670Z,94.32
2018-12-05T09:10:59.658Z,93.84
2018-12-05T09:11:59.650Z,94.03
2018-12-05T09:12:59.645Z,93.94
2018-12-05T09:13:59.637Z,94.51
2018-12-05T09:14:59.625Z,94.13
2018-12-05T09:15:59.621Z,93.84
2018-12-05T09:16:59.604Z,93.94
2018-12-05T09:17:59.593Z,94.03
2018-12-05T09:18:59.588Z,93.89
2018-12-05T09:19:59.578Z,93.94
2018-12-05T09:20:59.564Z,94.18
2018-12-05T09:21:59.555Z,94.18
2018-12-05T09:22:59.546Z,93.75
2018-12-05T09:23:59.536Z,93.60
2018-12-05T09:24:59.533Z,93.99
2018-12-05T09:25:59.522Z,93.84
2018-12-05T09:26:59.513Z,92.90
2018-12-05T09:27:59.502Z,93.89
2018-12-05T09:28:59.491Z,93.51
2018-12-05T09:29:59.481Z,94.18
2018-12-05T09:30:59.470Z,93.51
2018-12-05T09:31:59.460Z,94.08
2018-12-05T09:32:59.456Z,93.41
2018-12-05T09:33:59.447Z,93.99
2018-12-05T09:34:59.433Z,93.32
2018-12-05T09:35:59.423Z,93.32
2018-12-05T09:36:59.420Z,93.51
2018-12-05T09:37:59.409Z,93.51
2018-12-05T09:38:59.401Z,93.89
2018-12-05T09:39:59.393Z,93.51
2018-12-05T09:40:59.377Z,93.23
2018-12-05T09:41:59.368Z,93.51
2018-12-05T09:42:59.358Z,93.51
2018-12-05T09:43:59.350Z,93.04
2018-12-05T09:44:59.345Z,93.60
2018-12-05T09:45:59.340Z,92.75
2018-12-05T09:46:59.327Z,93.04
2018-12-05T09:47:59.318Z,93.23
2018-12-05T09:48:59.306Z,92.94
2018-12-05T09:49:59.295Z,92.56
2018-12-05T09:50:59.291Z,93.41
2018-12-05T09:51:59.284Z,92.85
2018-12-05T09:52:59.268Z,92.56
2018-12-05T09:53:59.259Z,92.56
2018-12-05T09:54:59.250Z,93.23
2018-12-05T09:55:59.242Z,92.75
2018-12-05T09:56:59.238Z,93.51
2018-12-05T09:57:59.230Z,93.32
2018-12-05T09:58:59.218Z,93.37
2018-12-05T09:59:59.209Z,93.65
2018-12-05T10:00:59.197Z,93.37
2018-12-05T10:01:59.188Z,93.08
2018-12-05T10:02:59.179Z,92.61
2018-12-05T10:03:59.171Z,92.99
2018-12-05T10:04:59.167Z,92.70
2018-12-05T10:05:59.159Z,92.80
2018-12-05T10:06:59.144Z,92.32
2018-12-05T10:07:59.135Z,92.61
2018-12-05T10:08:59.133Z,92.22
2018-12-05T10:09:59.125Z,92.03
2018-12-05T10:10:59.114Z,92.41
2018-12-05T10:11:59.106Z,92.80
2018-12-05T10:12:59.094Z,92.80
2018-12-05T10:13:59.085Z,92.22
2018-12-05T10:14:59.077Z,92.61
2018-12-05T10:15:59.067Z,92.22
2018-12-05T10:16:59.064Z,92.51
2018-12-05T10:17:59.057Z,92.32
2018-12-05T10:18:59.048Z,92.22
2018-12-05T10:19:59.040Z,92.51
2018-12-05T10:20:59.031Z,92.32
2018-12-05T10:21:59.027Z,92.80
2018-12-05T10:22:59.015Z,92.70
2018-12-05T10:23:59.007Z,92.70
2018-12-05T10:24:58.993Z,92.70
2018-12-05T10:25:58.987Z,92.99
2018-12-05T10:26:58.979Z,92.41
2018-12-05T10:27:58.968Z,92.80
2018-12-05T10:28:58.964Z,92.80
2018-12-05T10:29:58.956Z,92.61
2018-12-05T10:30:58.947Z,92.70
2018-12-05T10:31:58.945Z,92.61
2018-12-05T10:32:58.927Z,92.89
2018-12-05T10:33:58.918Z,93.46
2018-12-05T10:34:58.910Z,93.08
2018-12-05T10:35:58.901Z,93.55
2018-12-05T10:36:58.899Z,92.61
2018-12-05T10:37:58.889Z,92.80
2018-12-05T10:38:58.876Z,93.37
2018-12-05T10:39:58.870Z,92.80
2018-12-05T10:40:58.863Z,92.80
2018-12-05T10:41:58.855Z,93.65
2018-12-05T10:42:58.846Z,93.08
2018-12-05T10:43:58.839Z,93.18
2018-12-05T10:44:58.825Z,92.80
2018-12-05T10:45:58.817Z,92.41
2018-12-05T10:46:58.809Z,92.61
2018-12-05T10:47:58.800Z,93.08
2018-12-05T10:48:58.798Z,92.56
2018-12-05T10:49:58.793Z,93.13
2018-12-05T10:50:58.780Z,92.56
2018-12-05T10:51:58.770Z,92.56
2018-12-05T10:52:58.759Z,92.65
2018-12-05T10:53:58.750Z,92.65
2018-12-05T10:54:58.746Z,91.99
2018-12-05T10:55:58.737Z,92.18
2018-12-05T10:56:58.726Z,92.84
2018-12-05T10:57:58.717Z,92.08
2018-12-05T10:58:58.711Z,92.27
2018-12-05T10:59:58.704Z,92.08
2018-12-05T11:00:58.699Z,92.08
2018-12-05T11:01:58.690Z,92.27
2018-12-05T11:02:58.681Z,91.99
2018-12-05T11:03:58.673Z,91.99
2018-12-05T11:04:58.661Z,91.51
2018-12-05T11:05:58.653Z,91.89
2018-12-05T11:06:58.645Z,92.22
2018-12-05T11:07:58.636Z,92.61
2018-12-05T11:08:58.633Z,92.32
2018-12-05T11:09:58.624Z,92.80
2018-12-05T11:10:58.613Z,92.80
2018-12-05T11:11:58.606Z,93.08
2018-12-05T11:12:58.600Z,93.27
2018-12-05T11:13:58.593Z,93.08
2018-12-05T11:14:58.585Z,93.27
2018-12-05T11:15:58.575Z,92.99
2018-12-05T11:16:58.564Z,93.18
2018-12-05T11:17:58.555Z,93.65
2018-12-05T11:18:58.547Z,92.89
2018-12-05T11:19:58.538Z,93.46
2018-12-05T11:20:58.534Z,93.37
2018-12-05T11:21:58.527Z,93.65
2018-12-05T11:22:58.519Z,93.65
2018-12-05T11:23:58.511Z,93.84
2018-12-05T11:24:58.496Z,93.84
2018-12-05T11:25:58.489Z,93.46
2018-12-05T11:26:58.485Z,93.46
2018-12-05T11:27:58.474Z,93.65
2018-12-05T11:28:58.463Z,93.37
2018-12-05T11:29:58.454Z,93.65
2018-12-05T11:30:58.445Z,93.46
2018-12-05T11:31:58.437Z,93.75
2018-12-05T11:32:58.434Z,93.94
2018-12-05T11:33:58.425Z,92.99
2018-12-05T11:34:58.416Z,93.27
2018-12-05T11:35:58.407Z,93.46
2018-12-05T11:36:58.397Z,93.55
2018-12-05T11:37:58.387Z,93.46
2018-12-05T11:38:58.376Z,93.75
2018-12-05T11:39:58.368Z,93.65
2018-12-05T11:40:58.364Z,93.60
2018-12-05T11:41:58.357Z,93.51
2018-12-05T11:42:58.345Z,93.55
2018-12-05T11:43:58.336Z,93.41
2018-12-05T11:44:58.331Z,93.13
2018-12-05T11:45:58.325Z,93.41
2018-12-05T11:46:58.314Z,93.04
2018-12-05T11:47:58.309Z,93.27
2018-12-05T11:48:58.292Z,93.41
2018-12-05T11:49:58.284Z,93.13
2018-12-05T11:50:58.274Z,93.70
2018-12-05T11:51:58.269Z,93.60
2018-12-05T11:52:58.262Z,92.94
2018-12-05T11:53:58.255Z,93.04
2018-12-05T11:54:58.250Z,93.32
2018-12-05T11:55:58.238Z,93.32
2018-12-05T11:56:58.225Z,92.84
2018-12-05T11:57:58.217Z,93.13
2018-12-05T11:58:58.215Z,93.32
2018-12-05T11:59:58.204Z,92.65
2018-12-05T12:00:58.191Z,93.70
2018-12-05T12:01:58.184Z,93.60
2018-12-05T12:02:58.173Z,93.32
2018-12-05T12:03:58.165Z,93.23
2018-12-05T12:04:58.165Z,93.23
2018-12-05T12:05:58.162Z,93.60
2018-12-05T12:06:58.149Z,92.75
2018-12-05T12:07:58.140Z,92.65
2018-12-05T12:08:58.128Z,92.75
2018-12-05T12:09:58.121Z,92.84
2018-12-05T12:10:58.108Z,93.79
2018-12-05T12:11:58.099Z,92.65
2018-12-05T12:12:58.102Z,92.84
2018-12-05T12:13:58.089Z,93.32
2018-12-05T12:14:58.075Z,93.13
2018-12-05T12:15:58.066Z,92.84
2018-12-05T12:16:58.068Z,93.60
2018-12-05T12:17:58.057Z,93.32
2018-12-05T12:18:58.048Z,93.23
2018-12-05T12:19:58.037Z,92.94
2018-12-05T12:20:58.027Z,93.32
2018-12-05T12:21:58.018Z,92.65
2018-12-05T12:22:58.009Z,93.51
2018-12-05T12:23:58.002Z,92.84
2018-12-05T12:24:57.996Z,92.94
2018-12-05T12:25:57.988Z,93.23
2018-12-05T12:26:57.980Z,93.51
2018-12-05T12:27:57.973Z,92.94
2018-12-05T12:28:57.958Z,93.41
2018-12-05T12:29:57.951Z,93.23
2018-12-05T12:30:57.948Z,93.32
2018-12-05T12:31:57.939Z,93.04
2018-12-05T12:32:57.926Z,93.04
2018-12-05T12:33:57.917Z,93.23
2018-12-05T12:34:57.911Z,93.13
2018-12-05T12:35:57.900Z,93.13
2018-12-05T12:36:57.898Z,93.23
2018-12-05T12:37:57.891Z,93.23
2018-12-05T12:38:57.887Z,93.32
2018-12-05T12:39:57.871Z,92.94
2018-12-05T12:40:57.860Z,93.41
2018-12-05T12:41:57.851Z,92.89
2018-12-05T12:42:57.842Z,93.55
2018-12-05T12:43:57.834Z,93.37
2018-12-05T12:44:57.831Z,92.89
2018-12-05T12:45:57.826Z,92.79
2018-12-05T12:46:57.809Z,92.79
2018-12-05T12:47:57.803Z,92.89
2018-12-05T12:48:57.798Z,92.89
2018-12-05T12:49:57.790Z,92.99
2018-12-05T12:50:57.781Z,92.60
2018-12-05T12:51:57.773Z,93.37